CYXR - Earlton (Timiskaming Regional) Airport

Pirep is a free, collaborative database of all public and private airports located within the United States. All pilots are welcome to contribute, edit, and improve any airport they have local knowledge about, no registration required.
Are you familiar with this airport? Help out other pilots by adding your local knowledge.
Uploaded photos will be licensed under a CC BY-SA 4.0 license. Please only upload photos you have the rights to use.
Tags
Public
Undocu­mented
METAR / TAF
Webcam
Edit Tags
Food
Camping
Lodging
Car Rental
Bicycles
Swimming
Golfing
Fishing
Hot Springs
Museum
Flying Clubs
Airpark
Upcoming Events
No upcoming events. Is anything happening here soon?
*
*
*

Where exactly on/near the airport is this event taking place?

Is there a webpage with more information for this event?

Who should be contacted for more information?

What is this event all about?

Repeat every
Description
Transient Parking
Fuel Location
Landing & Tie-down Fees
Crew Car Availability
Flying Clubs
WiFi Access
Airport Statistics
Location: Earlton, Ontario
Elevation: 800ft
Runway 08/26: 5,998ft
Runway 16/34: 3,019ft
Warning: This airport was imported from a non-authoritative source. It's public/private status may not be accurate.
Access: Open to the public
Current Weather — VFR
  • Weather data is strictly informational and not for flight planning purposes.
  • METAR
    2024-04-22 08:00:00 EDT
    Ceiling Wind Temperature Dewpoint Weather Visbility
    Sky clear 150° @ 6kt 23°F 15°F N/A 9SM
    Raw: CYXR 221200Z AUTO 15006KT 9SM CLR M05/M09 A2999 RMK SLP172
  • TAF
    2024-04-22 08:00:00 EDT – 2024-04-22 09:00:00 EDT
    Ceiling Wind Weather Visbility
    Sky clear 170° @ 5kt N/A 6SM
    Clouds: @ ft
    Raw: TAF CYXR 221140Z 2212/2224 17005KT P6SM SKC BECMG 2213/2215 21012KT BKN070 OVC110 FM221500 21012KT P6SM BKN070 OVC110 TEMPO 2215/2219 P6SM -RASN BKN030 OVC070 FM221900 21010G20KT P6SM BKN080 FM222100 21015G25KT P6SM SCT080 BECMG 2222/2224 21008G18KT RMK FCST BASED ON AUTO OBS. NXT FCST BY 221800Z
  • TAF
    2024-04-22 09:00:00 EDT – 2024-04-22 11:00:00 EDT
    Ceiling Wind Weather Visbility
    7,000ft 210° @ 12kt N/A 6SM
    Clouds: Broken @ 7,000ft, Overcast @ 11,000ft
    Raw: TAF CYXR 221140Z 2212/2224 17005KT P6SM SKC BECMG 2213/2215 21012KT BKN070 OVC110 FM221500 21012KT P6SM BKN070 OVC110 TEMPO 2215/2219 P6SM -RASN BKN030 OVC070 FM221900 21010G20KT P6SM BKN080 FM222100 21015G25KT P6SM SCT080 BECMG 2222/2224 21008G18KT RMK FCST BASED ON AUTO OBS. NXT FCST BY 221800Z
  • TAF
    2024-04-22 11:00:00 EDT – 2024-04-22 15:00:00 EDT
    Ceiling Wind Weather Visbility
    7,000ft 210° @ 12kt N/A 6SM
    Clouds: Broken @ 7,000ft, Overcast @ 11,000ft
    Raw: TAF CYXR 221140Z 2212/2224 17005KT P6SM SKC BECMG 2213/2215 21012KT BKN070 OVC110 FM221500 21012KT P6SM BKN070 OVC110 TEMPO 2215/2219 P6SM -RASN BKN030 OVC070 FM221900 21010G20KT P6SM BKN080 FM222100 21015G25KT P6SM SCT080 BECMG 2222/2224 21008G18KT RMK FCST BASED ON AUTO OBS. NXT FCST BY 221800Z
  • TAF
    2024-04-22 11:00:00 EDT – 2024-04-22 15:00:00 EDT
    Ceiling Wind Weather Visbility
    3,000ft ° @ kt Light rain, light snow 6SM
    Clouds: Broken @ 3,000ft, Overcast @ 7,000ft
    Raw: TAF CYXR 221140Z 2212/2224 17005KT P6SM SKC BECMG 2213/2215 21012KT BKN070 OVC110 FM221500 21012KT P6SM BKN070 OVC110 TEMPO 2215/2219 P6SM -RASN BKN030 OVC070 FM221900 21010G20KT P6SM BKN080 FM222100 21015G25KT P6SM SCT080 BECMG 2222/2224 21008G18KT RMK FCST BASED ON AUTO OBS. NXT FCST BY 221800Z
  • TAF
    2024-04-22 15:00:00 EDT – 2024-04-22 17:00:00 EDT
    Ceiling Wind Weather Visbility
    8,000ft 210° @ 10kt, gusts 20kt N/A 6SM
    Clouds: Broken @ 8,000ft
    Raw: TAF CYXR 221140Z 2212/2224 17005KT P6SM SKC BECMG 2213/2215 21012KT BKN070 OVC110 FM221500 21012KT P6SM BKN070 OVC110 TEMPO 2215/2219 P6SM -RASN BKN030 OVC070 FM221900 21010G20KT P6SM BKN080 FM222100 21015G25KT P6SM SCT080 BECMG 2222/2224 21008G18KT RMK FCST BASED ON AUTO OBS. NXT FCST BY 221800Z
  • TAF
    2024-04-22 17:00:00 EDT – 2024-04-22 18:00:00 EDT
    Ceiling Wind Weather Visbility
    Sky clear 210° @ 15kt, gusts 25kt N/A 6SM
    Clouds: Scattered @ 8,000ft
    Raw: TAF CYXR 221140Z 2212/2224 17005KT P6SM SKC BECMG 2213/2215 21012KT BKN070 OVC110 FM221500 21012KT P6SM BKN070 OVC110 TEMPO 2215/2219 P6SM -RASN BKN030 OVC070 FM221900 21010G20KT P6SM BKN080 FM222100 21015G25KT P6SM SCT080 BECMG 2222/2224 21008G18KT RMK FCST BASED ON AUTO OBS. NXT FCST BY 221800Z
  • TAF
    2024-04-22 18:00:00 EDT – 2024-04-22 20:00:00 EDT
    Ceiling Wind Weather Visbility
    Sky clear 210° @ 8kt, gusts 18kt N/A 6SM
    Clouds: Scattered @ 8,000ft
    Raw: TAF CYXR 221140Z 2212/2224 17005KT P6SM SKC BECMG 2213/2215 21012KT BKN070 OVC110 FM221500 21012KT P6SM BKN070 OVC110 TEMPO 2215/2219 P6SM -RASN BKN030 OVC070 FM221900 21010G20KT P6SM BKN080 FM222100 21015G25KT P6SM SCT080 BECMG 2222/2224 21008G18KT RMK FCST BASED ON AUTO OBS. NXT FCST BY 221800Z
Click/tap to add an annotation marker to the map
Direct links to live image URLs will be displayed inline on this page. URLs to separate webpages will be linked to.
URL:
Direct links to live image URLs will be displayed inline on this page. URLs to separate webpages will be linked to.
URL:
Comments
Leave a comment What was your experience like at this airport?